createdAt,value
2019-04-14T00:00:42.646Z,8.90
2019-04-14T00:03:17.249Z,9.30
2019-04-14T00:05:48.231Z,8.90
2019-04-14T00:08:17.877Z,9.00
2019-04-14T00:10:48.528Z,9.70
2019-04-14T00:13:17.995Z,8.73
2019-04-14T00:15:50.307Z,8.70
2019-04-14T00:18:18.606Z,8.60
2019-04-14T00:20:49.041Z,9.13
2019-04-14T00:23:19.964Z,8.40
2019-04-14T00:25:50.095Z,8.93
2019-04-14T00:28:20.608Z,7.90
2019-04-14T00:30:51.151Z,8.10
2019-04-14T00:33:28.272Z,9.70
2019-04-14T00:36:04.932Z,7.77
2019-04-14T00:38:36.901Z,8.90
2019-04-14T00:41:11.579Z,9.63
2019-04-14T00:43:59.207Z,9.70
2019-04-14T00:46:36.764Z,8.30
2019-04-14T00:49:07.039Z,9.20
2019-04-14T00:51:38.328Z,9.33
2019-04-14T00:54:08.754Z,9.73
2019-04-14T00:56:39.023Z,9.90
2019-04-14T00:59:09.274Z,9.53
2019-04-14T01:01:39.446Z,9.00
2019-04-14T01:04:09.794Z,9.50
2019-04-14T01:06:40.381Z,9.77
2019-04-14T01:09:11.498Z,9.97
2019-04-14T01:11:42.104Z,9.60
2019-04-14T01:14:12.562Z,10.23
2019-04-14T01:16:42.990Z,9.03
2019-04-14T01:19:13.374Z,9.60
2019-04-14T01:21:43.622Z,9.27
2019-04-14T01:24:14.156Z,9.73
2019-04-14T01:26:44.240Z,9.70
2019-04-14T01:29:14.406Z,10.23
2019-04-14T01:31:44.674Z,10.10
2019-04-14T01:34:15.198Z,10.27
2019-04-14T01:36:45.335Z,10.40
2019-04-14T01:39:15.473Z,10.77
2019-04-14T01:41:45.638Z,11.63
2019-04-14T01:44:15.608Z,11.60
2019-04-14T01:46:45.581Z,10.33
2019-04-14T01:49:15.757Z,11.60
2019-04-14T01:51:50.635Z,11.33
2019-04-14T01:54:38.753Z,10.00
2019-04-14T01:57:22.120Z,11.20
2019-04-14T01:59:52.534Z,10.93
2019-04-14T02:02:24.579Z,10.37
2019-04-14T02:04:55.270Z,12.40
2019-04-14T02:07:25.554Z,12.23
2019-04-14T02:09:55.344Z,11.77
2019-04-14T02:12:25.646Z,12.10
2019-04-14T02:14:56.275Z,11.87
2019-04-14T02:17:26.359Z,10.67
2019-04-14T02:19:56.783Z,10.93
2019-04-14T02:22:26.652Z,10.93
2019-04-14T02:24:57.080Z,12.03
2019-04-14T02:27:27.404Z,11.33
2019-04-14T02:29:58.290Z,12.27
2019-04-14T02:33:00.452Z,11.87
2019-04-14T02:35:35.117Z,12.47
2019-04-14T02:38:05.659Z,11.47
2019-04-14T02:40:43.748Z,11.53
2019-04-14T02:42:56.387Z,11.13
2019-04-14T02:45:35.366Z,11.50
2019-04-14T02:50:30.484Z,11.67
2019-04-14T02:53:15.267Z,13.27
2019-04-14T02:55:42.235Z,11.73
2019-04-14T02:58:16.109Z,12.13
2019-04-14T03:03:15.942Z,13.13
2019-04-14T03:05:54.402Z,12.63
2019-04-14T03:08:16.715Z,11.63
2019-04-14T03:10:47.221Z,11.47
2019-04-14T03:13:23.096Z,11.23
2019-04-14T03:15:58.818Z,12.27
2019-04-14T03:18:33.782Z,11.70
2019-04-14T03:20:59.066Z,11.77
2019-04-14T03:23:33.338Z,12.53
2019-04-14T03:26:11.905Z,12.13
2019-04-14T03:28:50.818Z,12.63
2019-04-14T03:34:21.314Z,13.30
2019-04-14T03:43:58.093Z,12.73
2019-04-14T03:51:39.894Z,12.43
2019-04-14T03:53:58.671Z,12.37
2019-04-14T03:56:16.798Z,12.13
2019-04-14T03:58:46.511Z,12.70
2019-04-14T04:01:17.177Z,13.27
2019-04-14T04:03:47.773Z,13.17
2019-04-14T04:06:18.308Z,12.27
2019-04-14T04:08:48.525Z,12.53
2019-04-14T04:11:19.091Z,13.03
2019-04-14T04:13:49.853Z,13.03
2019-04-14T04:16:20.866Z,11.40
2019-04-14T04:18:57.857Z,11.23
2019-04-14T04:21:26.895Z,11.20
2019-04-14T04:24:17.060Z,12.07
2019-04-14T04:26:54.207Z,13.07
2019-04-14T04:29:25.187Z,13.10
2019-04-14T04:32:05.672Z,12.23
2019-04-14T04:34:40.249Z,12.03
2019-04-14T04:37:14.927Z,12.33
2019-04-14T04:39:45.958Z,12.43
2019-04-14T04:42:15.509Z,12.97
2019-04-14T04:44:44.916Z,11.93
2019-04-14T04:47:14.374Z,12.67
2019-04-14T04:49:44.664Z,13.00
2019-04-14T04:52:15.433Z,12.53
2019-04-14T04:54:45.124Z,13.33
2019-04-14T04:57:15.524Z,13.60
2019-04-14T04:59:45.267Z,11.73
2019-04-14T05:02:15.496Z,13.20
2019-04-14T05:04:46.022Z,13.57
2019-04-14T05:07:16.538Z,12.93
2019-04-14T05:09:57.772Z,12.10
2019-04-14T05:12:32.687Z,13.07
2019-04-14T05:15:03.833Z,12.77
2019-04-14T05:17:45.166Z,13.17
2019-04-14T05:20:15.852Z,11.37
2019-04-14T05:22:46.194Z,12.50
2019-04-14T05:25:16.680Z,10.87
2019-04-14T05:27:47.271Z,12.27
2019-04-14T05:30:17.582Z,11.63
2019-04-14T05:32:47.966Z,12.90
2019-04-14T05:35:18.411Z,12.93
2019-04-14T05:37:48.673Z,12.23
2019-04-14T05:40:18.894Z,13.03
2019-04-14T05:42:49.378Z,11.40
2019-04-14T05:45:19.865Z,11.90
2019-04-14T05:47:50.124Z,12.43
2019-04-14T05:50:20.310Z,13.00
2019-04-14T05:52:49.685Z,13.73
2019-04-14T05:55:19.892Z,14.50
2019-04-14T05:57:50.246Z,12.57
2019-04-14T06:00:21.204Z,11.97
2019-04-14T06:02:50.759Z,12.47
2019-04-14T06:05:21.145Z,12.77
2019-04-14T06:07:50.526Z,12.13
2019-04-14T06:10:19.884Z,10.97
2019-04-14T06:12:49.215Z,11.80
2019-04-14T06:15:18.549Z,13.27
2019-04-14T06:17:47.894Z,12.03
2019-04-14T06:20:17.226Z,12.60
2019-04-14T06:22:46.582Z,11.27
2019-04-14T06:25:15.914Z,11.87
2019-04-14T06:27:45.249Z,12.27
2019-04-14T06:30:36.101Z,12.57
2019-04-14T06:33:07.073Z,13.17
2019-04-14T06:35:50.089Z,12.30
2019-04-14T06:38:24.140Z,12.97
2019-04-14T06:40:57.822Z,12.63
2019-04-14T06:43:27.170Z,12.57
2019-04-14T06:45:56.512Z,14.07
2019-04-14T06:48:25.857Z,13.40
2019-04-14T06:50:55.198Z,12.70
2019-04-14T06:53:24.567Z,12.37
2019-04-14T06:55:55.096Z,14.50
2019-04-14T06:58:24.513Z,13.27
2019-04-14T07:00:53.864Z,14.83
2019-04-14T07:03:23.303Z,12.10
2019-04-14T07:05:52.693Z,14.00
2019-04-14T07:08:22.037Z,13.57
2019-04-14T07:10:51.378Z,12.67
2019-04-14T07:13:20.730Z,14.57
2019-04-14T07:15:50.083Z,13.23
2019-04-14T07:18:19.425Z,14.03
2019-04-14T07:20:48.775Z,13.00
2019-04-14T07:23:18.119Z,12.33
2019-04-14T07:25:47.471Z,13.50
2019-04-14T07:28:16.818Z,15.30
2019-04-14T07:30:50.487Z,12.97
2019-04-14T07:33:22.366Z,12.63
2019-04-14T07:35:56.353Z,13.50
2019-04-14T07:38:33.410Z,12.50
2019-04-14T07:41:20.181Z,13.40
2019-04-14T07:43:56.930Z,12.70
2019-04-14T07:46:27.910Z,13.63
2019-04-14T07:49:15.057Z,14.17
2019-04-14T07:51:55.021Z,13.50
2019-04-14T07:54:26.012Z,12.27
2019-04-14T07:57:05.987Z,13.23
2019-04-14T07:59:52.059Z,14.60
2019-04-14T08:02:23.051Z,13.27
2019-04-14T08:04:54.026Z,18.97
2019-04-14T08:07:24.546Z,17.43
2019-04-14T08:09:53.892Z,16.80
2019-04-14T08:12:23.263Z,14.03
2019-04-14T08:14:52.608Z,13.30
2019-04-14T08:17:22.141Z,13.07
2019-04-14T08:19:51.576Z,12.83
2019-04-14T08:22:20.917Z,12.90
2019-04-14T08:24:50.270Z,12.87
2019-04-14T08:27:19.618Z,12.57
2019-04-14T08:29:48.959Z,13.93
2019-04-14T08:32:18.301Z,14.37
2019-04-14T08:34:47.642Z,13.93
2019-04-14T08:37:16.978Z,13.13
2019-04-14T08:39:46.419Z,15.87
2019-04-14T08:42:20.421Z,13.97
2019-04-14T08:44:51.407Z,14.53
2019-04-14T08:47:22.412Z,13.70
2019-04-14T08:49:53.403Z,13.23
2019-04-14T08:52:24.456Z,14.07
2019-04-14T08:55:04.246Z,12.83
2019-04-14T08:57:51.397Z,13.10
2019-04-14T09:00:34.241Z,14.10
2019-04-14T09:03:14.182Z,12.97
2019-04-14T09:06:01.865Z,12.47
2019-04-14T09:08:32.851Z,12.70
2019-04-14T09:11:03.842Z,13.53
2019-04-14T09:13:33.190Z,13.57
2019-04-14T09:16:02.529Z,12.33
2019-04-14T09:18:31.870Z,13.27
2019-04-14T09:21:01.213Z,12.60
2019-04-14T09:23:30.555Z,13.97
2019-04-14T09:25:59.921Z,13.37
2019-04-14T09:28:29.254Z,13.63
2019-04-14T09:30:58.599Z,13.93
2019-04-14T09:33:27.953Z,13.90
2019-04-14T09:35:57.302Z,13.43
2019-04-14T09:38:26.646Z,13.80
2019-04-14T09:40:55.992Z,13.70
2019-04-14T09:43:25.337Z,12.77
2019-04-14T09:45:54.682Z,13.83
2019-04-14T09:48:24.026Z,12.50
2019-04-14T09:51:04.318Z,12.67
2019-04-14T09:53:24.790Z,14.17
2019-04-14T09:55:54.134Z,13.50
2019-04-14T09:58:23.482Z,13.10
2019-04-14T10:00:52.825Z,13.17
2019-04-14T10:03:22.177Z,13.27
2019-04-14T10:05:51.755Z,13.87
2019-04-14T10:08:21.102Z,13.13
2019-04-14T10:10:50.454Z,13.40
2019-04-14T10:13:19.795Z,13.33
2019-04-14T10:15:49.140Z,12.67
2019-04-14T10:18:18.485Z,11.37
2019-04-14T10:20:47.834Z,12.10
2019-04-14T10:23:17.178Z,11.63
2019-04-14T10:25:46.529Z,12.23
2019-04-14T10:28:17.398Z,10.57
2019-04-14T10:30:46.754Z,11.33
2019-04-14T10:33:16.101Z,12.17
2019-04-14T10:35:45.455Z,11.57
2019-04-14T10:38:14.812Z,14.17
2019-04-14T10:40:44.159Z,12.03
2019-04-14T10:43:13.522Z,10.90
2019-04-14T10:45:42.872Z,10.97
2019-04-14T10:48:12.229Z,9.63
2019-04-14T10:50:41.574Z,9.77
2019-04-14T10:53:10.921Z,9.60
2019-04-14T10:55:40.265Z,9.63
2019-04-14T10:58:09.621Z,9.17
2019-04-14T11:00:39.033Z,9.23
2019-04-14T11:03:08.398Z,9.70
2019-04-14T11:05:51.402Z,9.33
2019-04-14T11:08:20.746Z,9.53
2019-04-14T11:10:50.095Z,9.37
2019-04-14T11:13:19.455Z,8.67
2019-04-14T11:15:48.800Z,9.63
2019-04-14T11:18:18.147Z,9.07
2019-04-14T11:20:47.492Z,8.30
2019-04-14T11:23:16.840Z,9.07
2019-04-14T11:25:46.182Z,8.97
2019-04-14T11:28:16.066Z,8.83
2019-04-14T11:30:45.679Z,8.57
2019-04-14T11:33:16.675Z,8.77
2019-04-14T11:35:47.654Z,8.90
2019-04-14T11:38:18.640Z,9.17
2019-04-14T11:41:01.860Z,9.40
2019-04-14T11:43:31.198Z,8.20
2019-04-14T11:46:03.446Z,8.70
2019-04-14T11:48:32.196Z,9.50
2019-04-14T11:51:01.832Z,9.23
2019-04-14T11:53:31.179Z,8.13
2019-04-14T11:56:00.529Z,8.77
2019-04-14T11:58:29.920Z,8.87
2019-04-14T12:01:00.868Z,8.80
2019-04-14T12:03:32.482Z,8.17
2019-04-14T12:06:06.488Z,8.17
2019-04-14T12:08:37.516Z,8.23
2019-04-14T12:11:06.879Z,9.07
2019-04-14T12:13:36.219Z,8.90
2019-04-14T12:16:05.564Z,9.47
2019-04-14T12:18:34.905Z,7.60
2019-04-14T12:21:04.272Z,8.03
2019-04-14T12:23:33.659Z,8.07
2019-04-14T12:26:05.456Z,8.40
2019-04-14T12:28:34.058Z,8.47
2019-04-14T12:31:06.406Z,7.60
2019-04-14T12:33:35.830Z,8.10
2019-04-14T12:36:09.802Z,8.33
2019-04-14T12:38:39.155Z,7.70
2019-04-14T12:41:10.592Z,8.47
2019-04-14T12:43:50.498Z,8.73
2019-04-14T12:46:37.684Z,7.93
2019-04-14T12:49:11.361Z,7.37
2019-04-14T12:51:54.401Z,7.67
2019-04-14T12:54:24.786Z,8.27
2019-04-14T12:56:54.138Z,8.80
2019-04-14T12:59:24.246Z,9.03
2019-04-14T13:02:01.187Z,8.30
2019-04-14T13:04:30.796Z,7.83
2019-04-14T13:07:00.412Z,8.20
2019-04-14T13:09:29.786Z,7.40
2019-04-14T13:11:59.129Z,6.77
2019-04-14T13:14:28.477Z,7.53
2019-04-14T13:16:57.818Z,6.93
2019-04-14T13:19:27.169Z,7.73
2019-04-14T13:21:56.621Z,7.70
2019-04-14T13:24:25.964Z,6.83
2019-04-14T13:26:55.304Z,7.07
2019-04-14T13:29:24.667Z,7.57
2019-04-14T13:31:54.007Z,7.37
2019-04-14T13:34:23.400Z,7.30
2019-04-14T13:36:52.750Z,7.07
2019-04-14T13:39:22.095Z,6.77
2019-04-14T13:41:52.737Z,6.97
2019-04-14T13:44:22.081Z,6.63
2019-04-14T13:46:51.685Z,6.77
2019-04-14T13:49:21.034Z,7.20
2019-04-14T13:51:50.382Z,7.87
2019-04-14T13:54:19.730Z,7.27
2019-04-14T13:56:49.074Z,7.73
2019-04-14T13:59:18.415Z,6.97
2019-04-14T14:01:47.772Z,6.87
2019-04-14T14:04:17.102Z,8.27
2019-04-14T14:06:46.482Z,6.83
2019-04-14T14:09:15.837Z,7.00
2019-04-14T14:11:58.589Z,7.17
2019-04-14T14:14:32.247Z,6.30
2019-04-14T14:17:03.229Z,6.63
2019-04-14T14:19:34.287Z,7.07
2019-04-14T14:22:08.236Z,6.87
2019-04-14T14:24:44.955Z,7.50
2019-04-14T14:27:14.314Z,7.70
2019-04-14T14:29:43.665Z,7.70
2019-04-14T14:32:17.668Z,7.23
2019-04-14T14:34:47.009Z,6.73
2019-04-14T14:37:16.372Z,7.43
2019-04-14T14:39:45.718Z,6.77
2019-04-14T14:42:15.057Z,7.57
2019-04-14T14:44:46.042Z,7.77
2019-04-14T14:47:17.022Z,7.27
2019-04-14T14:49:50.954Z,7.70
2019-04-14T14:52:21.483Z,7.90
2019-04-14T14:54:50.837Z,6.80
2019-04-14T14:57:20.177Z,6.83
2019-04-14T14:59:49.526Z,7.20
2019-04-14T15:02:18.901Z,7.13
2019-04-14T15:04:48.246Z,6.40
2019-04-14T15:07:17.621Z,7.57
2019-04-14T15:09:46.981Z,7.60
2019-04-14T15:12:16.321Z,7.63
2019-04-14T15:14:45.949Z,7.33
2019-04-14T15:17:15.534Z,6.73
2019-04-14T15:19:44.881Z,7.30
2019-04-14T15:22:14.231Z,7.83
2019-04-14T15:24:43.570Z,7.83
2019-04-14T15:27:12.919Z,7.60
2019-04-14T15:29:42.260Z,7.10
2019-04-14T15:32:11.605Z,7.63
2019-04-14T15:34:40.956Z,7.80
2019-04-14T15:37:10.302Z,7.60
2019-04-14T15:39:39.649Z,9.97
2019-04-14T15:42:09.004Z,6.97
2019-04-14T15:44:38.351Z,8.10
2019-04-14T15:47:07.687Z,7.20
2019-04-14T15:49:37.034Z,7.17
2019-04-14T15:52:06.376Z,7.27
2019-04-14T15:54:35.735Z,7.17
2019-04-14T15:57:09.691Z,6.63
2019-04-14T15:59:49.264Z,7.70
2019-04-14T16:02:26.747Z,8.17
2019-04-14T16:04:57.732Z,7.23
2019-04-14T16:07:31.409Z,6.83
2019-04-14T16:10:11.401Z,7.07
2019-04-14T16:12:48.145Z,7.03
2019-04-14T16:15:35.339Z,7.23
2019-04-14T16:18:12.111Z,7.37
2019-04-14T16:20:43.104Z,7.43
2019-04-14T16:23:12.448Z,7.23
2019-04-14T16:25:46.105Z,7.47
2019-04-14T16:28:17.087Z,7.67
2019-04-14T16:30:48.073Z,7.33
2019-04-14T16:33:24.903Z,7.10
2019-04-14T16:35:54.831Z,7.63
2019-04-14T16:38:24.169Z,7.83
2019-04-14T16:40:53.510Z,7.60
2019-04-14T16:43:22.863Z,8.30
2019-04-14T16:45:52.216Z,7.33
2019-04-14T16:48:21.561Z,7.73
2019-04-14T16:50:50.902Z,6.60
2019-04-14T16:53:27.671Z,7.53
2019-04-14T16:56:01.077Z,8.27
2019-04-14T16:58:38.077Z,7.63
2019-04-14T17:01:09.058Z,7.87
2019-04-14T17:03:38.406Z,7.13
2019-04-14T17:06:07.753Z,7.93
2019-04-14T17:08:37.455Z,7.93
2019-04-14T17:11:06.795Z,7.93
2019-04-14T17:13:37.780Z,7.07
2019-04-14T17:16:08.769Z,7.40
2019-04-14T17:18:51.982Z,7.47
2019-04-14T17:21:39.090Z,7.77
2019-04-14T17:24:16.240Z,7.57
2019-04-14T17:26:49.575Z,8.40
2019-04-14T17:29:20.572Z,7.83
2019-04-14T17:31:54.195Z,10.57
2019-04-14T17:34:25.271Z,13.17
2019-04-14T17:37:12.711Z,10.60
2019-04-14T17:39:58.746Z,8.90
2019-04-14T17:42:35.485Z,8.60
2019-04-14T17:45:24.929Z,8.53
2019-04-14T17:47:58.676Z,8.37
2019-04-14T17:50:40.905Z,8.40
2019-04-14T17:53:19.959Z,8.90
2019-04-14T17:55:56.624Z,9.33
2019-04-14T17:58:27.607Z,8.33
2019-04-14T18:01:01.596Z,8.30
2019-04-14T18:03:41.379Z,9.13
2019-04-14T18:06:18.119Z,8.83
2019-04-14T18:08:49.102Z,8.40
2019-04-14T18:11:36.572Z,8.40
2019-04-14T18:14:10.262Z,7.90
2019-04-14T18:16:56.307Z,8.97
2019-04-14T18:19:33.094Z,8.73
2019-04-14T18:22:02.445Z,13.30
2019-04-14T18:24:41.628Z,9.93
2019-04-14T18:27:02.932Z,9.10
2019-04-14T18:29:39.729Z,8.90
2019-04-14T18:32:16.766Z,8.47
2019-04-14T18:34:47.764Z,8.50
2019-04-14T18:37:21.543Z,9.60
2019-04-14T18:39:55.469Z,8.60
2019-04-14T18:42:38.708Z,8.73
2019-04-14T18:45:11.012Z,8.53
2019-04-14T18:47:47.862Z,9.17
2019-04-14T18:50:21.743Z,8.87
2019-04-14T18:53:09.167Z,9.30
2019-04-14T18:55:56.469Z,10.03
2019-04-14T18:58:43.952Z,9.87
2019-04-14T19:01:17.591Z,9.43
2019-04-14T19:03:46.963Z,8.97
2019-04-14T19:06:16.274Z,8.60
2019-04-14T19:08:45.626Z,8.40
2019-04-14T19:11:16.745Z,8.80
2019-04-14T19:13:50.881Z,8.90
2019-04-14T19:16:21.983Z,8.13
2019-04-14T19:18:53.005Z,8.73
2019-04-14T19:21:23.974Z,8.23
2019-04-14T19:23:53.316Z,7.83
2019-04-14T19:26:22.675Z,8.43
2019-04-14T19:28:52.345Z,8.17
2019-04-14T19:31:21.689Z,8.47
2019-04-14T19:33:51.029Z,8.97
2019-04-14T19:36:20.388Z,9.13
2019-04-14T19:38:49.820Z,9.33
2019-04-14T19:41:19.180Z,9.07
2019-04-14T19:43:48.521Z,9.33
2019-04-14T19:46:17.854Z,9.40
2019-04-14T19:48:47.201Z,8.97
2019-04-14T19:51:16.562Z,8.80
2019-04-14T19:53:45.971Z,8.47
2019-04-14T19:56:15.601Z,8.97
2019-04-14T19:58:44.974Z,9.33
2019-04-14T20:01:14.319Z,8.83
2019-04-14T20:03:43.664Z,8.93
2019-04-14T20:06:13.003Z,9.43
2019-04-14T20:08:42.350Z,9.23
2019-04-14T20:11:11.696Z,8.23
2019-04-14T20:13:42.702Z,8.53
2019-04-14T20:16:13.682Z,8.93
2019-04-14T20:19:10.201Z,9.33
2019-04-14T20:21:41.426Z,9.43
2019-04-14T20:24:17.854Z,8.47
2019-04-14T20:26:49.002Z,8.80
2019-04-14T20:29:20.043Z,7.97
2019-04-14T20:31:51.362Z,8.70
2019-04-14T20:34:20.706Z,9.60
2019-04-14T20:36:50.043Z,9.27
2019-04-14T20:39:19.768Z,10.00
2019-04-14T20:41:49.108Z,9.87
2019-04-14T20:44:18.613Z,8.73
2019-04-14T20:46:47.948Z,9.30
2019-04-14T20:49:17.292Z,9.03
2019-04-14T20:51:46.628Z,8.63
2019-04-14T20:54:15.979Z,9.40
2019-04-14T20:56:45.342Z,9.60
2019-04-14T20:59:14.741Z,9.07
2019-04-14T21:01:45.786Z,8.50
2019-04-14T21:04:22.443Z,8.73
2019-04-14T21:06:59.215Z,9.03
2019-04-14T21:09:46.148Z,9.33
2019-04-14T21:12:19.789Z,9.13
2019-04-14T21:15:07.105Z,9.30
2019-04-14T21:17:38.087Z,8.33
2019-04-14T21:20:21.302Z,9.13
2019-04-14T21:22:52.300Z,8.90
2019-04-14T21:25:32.043Z,8.73
2019-04-14T21:28:03.038Z,8.47
2019-04-14T21:30:39.819Z,9.70
2019-04-14T21:33:10.810Z,8.50
2019-04-14T21:35:45.815Z,8.80
2019-04-14T21:38:17.031Z,8.43
2019-04-14T21:40:48.013Z,9.30
2019-04-14T21:43:17.520Z,8.53
2019-04-14T21:45:46.859Z,8.07
2019-04-14T21:48:16.213Z,8.20
2019-04-14T21:50:45.630Z,8.43
2019-04-14T21:53:14.983Z,7.67
2019-04-14T21:55:44.362Z,8.17
2019-04-14T21:58:27.265Z,8.63
2019-04-14T22:01:36.588Z,7.10
2019-04-14T22:04:24.034Z,7.60
2019-04-14T22:06:55.016Z,8.50
2019-04-14T22:09:28.707Z,8.33
2019-04-14T22:11:58.825Z,7.83
2019-04-14T22:14:28.163Z,7.90
2019-04-14T22:16:57.586Z,8.13
2019-04-14T22:19:26.945Z,8.10
2019-04-14T22:21:56.285Z,8.83
2019-04-14T22:24:25.622Z,8.53
2019-04-14T22:26:54.966Z,8.07
2019-04-14T22:29:24.301Z,9.03
2019-04-14T22:31:53.672Z,8.43
2019-04-14T22:34:23.010Z,8.33
2019-04-14T22:36:52.348Z,8.30
2019-04-14T22:39:21.865Z,8.10
2019-04-14T22:41:51.200Z,8.33
2019-04-14T22:44:20.537Z,8.50
2019-04-14T22:46:49.954Z,9.33
2019-04-14T22:49:19.302Z,8.37
2019-04-14T22:51:48.638Z,8.60
2019-04-14T22:54:17.976Z,9.17
2019-04-14T22:56:47.315Z,8.93
2019-04-14T22:59:16.648Z,7.97
2019-04-14T23:01:50.602Z,8.83
2019-04-14T23:04:33.728Z,8.83
2019-04-14T23:07:10.958Z,8.33
2019-04-14T23:09:41.941Z,8.07
2019-04-14T23:12:24.912Z,8.17
2019-04-14T23:14:55.903Z,8.10
2019-04-14T23:17:41.932Z,8.53
2019-04-14T23:20:13.830Z,8.30
2019-04-14T23:23:01.361Z,8.10
2019-04-14T23:25:30.711Z,7.90
2019-04-14T23:28:00.136Z,7.50
2019-04-14T23:30:29.410Z,7.93
2019-04-14T23:32:58.813Z,7.57
2019-04-14T23:35:28.326Z,7.93
2019-04-14T23:37:57.664Z,7.73
2019-04-14T23:40:27.017Z,7.47
2019-04-14T23:42:56.356Z,7.93
2019-04-14T23:45:25.713Z,8.33
2019-04-14T23:47:55.056Z,7.70
2019-04-14T23:50:24.409Z,8.73
2019-04-14T23:52:53.749Z,7.73
2019-04-14T23:55:23.086Z,8.30
2019-04-14T23:57:52.431Z,7.93
